WMKK METAR and TAF | Updated Today

WMKK METAR

Kuala Lumpur International Airport

Observation time: 26 min. ago

WMKK 080530Z VRB03KT 9999 SCT018 33/23 Q1010 NOSIG

Need help? Read our tutorial on how to read METARs or read the parsed version below.

Kuala Lumpur International Airport (WMKK) METAR

  • Weather conditions on Wed, 08 Dec 2021 05:30:00 +0000 (26 min. ago):
  • Present conditions: Dry
  • Clouds: Scattered at 549 meters
  • Visibility: Greater than 10 km
  • Wind: Variable at 3 knots
  • Temperature: 33 celsius
  • Dew point: 23 celsius
  • Pressure: 1010 millibars
  • Remarks: None


Useful to know...

WMKK TAF

Kuala Lumpur International Airport

TAF WMKK 072300Z 0800/0906 03005KT 9999 FEW017CB
Observation time: 6:56 hr. ago
Need help? Read our tutorial on how to read TAFs or read the parsed version below.

Parsed version of TAF for Kuala Lumpur International Airport (WMKK)

  • From 08 December at 00:00 UTC, to day 09 of the month at 06:00 UTC
  • Clouds: A few at 518 meters, cumulonimbus
  • Visibility: Greater than 10 km
  • Wind: 30 degrees at 5